Time;durP1;ratioP1;P1;durP2;ratioP2;P2;SDS_P1;SDS_P2;PMS_P1;PMS_P2;Temp;Humidity;BMP_temperature;BMP_pressure;BME280_temperature;BME280_humidity;BME280_pressure;Samples;Min_cycle;Max_cycle;Signal;HPM_P1;HPM_P2
2022/07/13 00:00:40;;;;;;;4.45;3.58;;;;;;;25.88;42.98;102077.88;5215814;28;20487;-48
2022/07/13 00:03:14;;;;;;;6.93;3.85;;;;;;;25.84;42.86;102066.66;5212603;28;20515;-51
2022/07/13 00:05:47;;;;;;;5.95;3.50;;;;;;;25.82;42.83;102068.75;5217764;28;20491;-51
2022/07/13 00:08:20;;;;;;;10.52;3.70;;;;;;;25.82;42.92;102051.69;5217205;28;20421;-54
2022/07/13 00:10:52;;;;;;;6.07;3.47;;;;;;;25.81;42.91;102061.69;5211413;28;20446;-52
2022/07/13 00:13:25;;;;;;;5.45;3.38;;;;;;;25.84;42.90;102060.44;5205662;28;20845;-47
2022/07/13 00:15:57;;;;;;;7.00;3.65;;;;;;;25.83;42.75;102053.34;5219884;28;20422;-49
2022/07/13 00:18:31;;;;;;;6.28;3.78;;;;;;;25.71;42.69;102034.28;5205472;28;20445;-47
2022/07/13 00:21:04;;;;;;;4.93;3.45;;;;;;;25.82;42.80;102049.81;5213611;28;20438;-48
2022/07/13 00:23:37;;;;;;;4.63;3.40;;;;;;;25.81;42.74;102045.44;5213940;28;20921;-50
2022/07/13 00:26:10;;;;;;;6.07;3.35;;;;;;;25.85;42.68;102045.84;5214653;28;20410;-47
2022/07/13 00:28:42;;;;;;;5.82;3.00;;;;;;;25.81;42.52;102044.59;5213196;28;20430;-48
2022/07/13 00:31:15;;;;;;;6.35;3.30;;;;;;;25.84;42.61;102041.47;5217945;28;20407;-48
2022/07/13 00:33:49;;;;;;;6.30;3.88;;;;;;;25.82;42.63;102046.28;5213234;28;20417;-53
2022/07/13 00:36:22;;;;;;;6.00;3.47;;;;;;;25.80;42.54;102053.75;5212304;28;20410;-46
2022/07/13 00:38:55;;;;;;;5.32;3.22;;;;;;;25.61;42.70;102031.22;5209576;28;20869;-48
2022/07/13 00:41:27;;;;;;;4.93;3.42;;;;;;;25.79;42.56;102057.50;5215866;28;20509;-47
2022/07/13 00:44:10;;;;;;;6.03;3.72;;;;;;;25.79;42.52;102052.09;5213146;28;20440;-49
2022/07/13 00:46:47;;;;;;;6.35;3.55;;;;;;;25.73;42.60;102043.81;5214705;28;20445;-47
2022/07/13 00:49:24;;;;;;;8.18;3.53;;;;;;;25.79;42.50;102052.09;5214663;28;20792;-50
2022/07/13 00:51:57;;;;;;;4.53;3.25;;;;;;;25.77;42.60;102038.81;5214785;28;20422;-46
2022/07/13 00:54:31;;;;;;;5.68;3.63;;;;;;;25.71;42.70;102035.09;5213276;28;20928;-48
2022/07/13 00:57:06;;;;;;;6.78;3.53;;;;;;;25.74;42.56;102060.91;5216120;28;20474;-50
2022/07/13 00:59:39;;;;;;;7.15;3.90;;;;;;;25.69;42.68;102029.06;5211940;28;20805;-51
2022/07/13 01:02:12;;;;;;;5.78;3.38;;;;;;;25.63;42.81;102029.13;5217865;28;20439;-47
2022/07/13 01:04:46;;;;;;;8.60;3.53;;;;;;;25.66;42.74;102037.63;5215035;28;20484;-47
2022/07/13 01:07:19;;;;;;;7.03;3.70;;;;;;;25.70;42.86;102033.44;5221783;28;20423;-51
2022/07/13 01:09:52;;;;;;;5.93;3.63;;;;;;;25.71;42.82;102020.75;5215821;28;20953;-48
2022/07/13 01:12:25;;;;;;;6.95;4.00;;;;;;;25.70;42.90;102019.91;5212000;28;20955;-49
2022/07/13 01:14:59;;;;;;;9.85;3.90;;;;;;;25.69;42.95;102020.13;5212392;28;20439;-46
2022/07/13 01:17:35;;;;;;;5.65;3.90;;;;;;;25.65;42.85;102011.63;5210464;28;20485;-47
2022/07/13 01:20:10;;;;;;;7.10;3.50;;;;;;;25.63;42.85;102000.19;5213796;28;20423;-49
2022/07/13 01:22:45;;;;;;;5.75;3.47;;;;;;;25.57;43.02;101990.28;5216278;28;20428;-48
2022/07/13 01:25:20;;;;;;;4.82;3.78;;;;;;;25.64;42.75;102001.03;5212946;28;20419;-47
2022/07/13 01:27:53;;;;;;;5.85;4.53;;;;;;;25.64;42.85;101995.63;5211317;28;20497;-50
2022/07/13 01:30:26;;;;;;;7.63;4.60;;;;;;;25.62;42.91;101998.56;5214489;28;20488;-53
2022/07/13 01:32:58;;;;;;;9.25;4.28;;;;;;;25.49;43.06;101982.44;5217481;28;20490;-52
2022/07/13 01:35:31;;;;;;;9.13;4.68;;;;;;;25.57;43.03;102003.78;5217070;28;20473;-52
2022/07/13 01:38:04;;;;;;;6.87;4.07;;;;;;;25.62;43.08;102003.97;5217958;28;20464;-51
2022/07/13 01:40:39;;;;;;;10.80;5.10;;;;;;;25.61;42.94;102002.31;5218347;28;20431;-47
2022/07/13 01:43:12;;;;;;;5.57;4.68;;;;;;;25.57;42.93;101994.84;5216275;28;20466;-48
2022/07/13 01:45:46;;;;;;;7.20;4.55;;;;;;;25.44;43.07;101974.16;5214558;28;20409;-46
2022/07/13 01:48:18;;;;;;;6.88;4.85;;;;;;;25.61;42.93;102002.31;5213996;28;20432;-47
2022/07/13 01:50:51;;;;;;;7.82;5.20;;;;;;;25.62;43.24;101989.63;5212208;28;20775;-46
2022/07/13 01:53:24;;;;;;;6.10;4.60;;;;;;;25.63;43.10;101997.50;5210533;28;20427;-46
2022/07/13 01:55:58;;;;;;;9.65;5.00;;;;;;;25.61;43.36;102007.72;5193969;28;20405;-46
2022/07/13 01:58:31;;;;;;;9.95;5.32;;;;;;;25.60;43.28;102006.06;5211312;28;20408;-48
2022/07/13 02:01:04;;;;;;;9.13;4.93;;;;;;;25.58;43.35;102004.63;5214627;28;21077;-49
2022/07/13 02:03:37;;;;;;;8.52;5.25;;;;;;;25.51;43.38;101996.56;5217847;28;20960;-52
2022/07/13 02:06:10;;;;;;;6.65;4.82;;;;;;;25.48;43.49;101992.41;5215375;28;20803;-47
2022/07/13 02:08:43;;;;;;;9.43;5.43;;;;;;;25.37;43.51;101973.41;5222862;28;20488;-47
2022/07/13 02:11:18;;;;;;;11.48;4.95;;;;;;;25.38;43.70;101980.47;5219294;28;20840;-47
2022/07/13 02:13:51;;;;;;;7.32;5.78;;;;;;;25.31;43.70;101983.22;5217622;28;20429;-46
2022/07/13 02:16:24;;;;;;;7.38;5.68;;;;;;;25.29;43.74;101980.72;5207763;28;20795;-47
2022/07/13 02:18:56;;;;;;;11.50;5.80;;;;;;;25.29;43.97;101988.81;5219658;28;20415;-49
2022/07/13 02:21:29;;;;;;;8.23;6.07;;;;;;;25.28;44.00;101980.94;5217298;28;20405;-45
2022/07/13 02:24:02;;;;;;;8.52;6.07;;;;;;;25.21;44.05;101969.34;5220110;28;20987;-47
2022/07/13 02:26:36;;;;;;;9.02;6.20;;;;;;;25.23;44.03;101967.25;5214160;28;20424;-50
2022/07/13 02:29:09;;;;;;;9.30;5.87;;;;;;;25.20;44.28;101971.22;5215354;28;20411;-47
2022/07/13 02:31:41;;;;;;;8.33;6.33;;;;;;;25.16;44.33;101964.59;5213812;28;20882;-49
2022/07/13 02:34:14;;;;;;;8.80;5.75;;;;;;;25.15;44.31;101972.91;5217128;28;20435;-46
2022/07/13 02:36:46;;;;;;;8.82;5.80;;;;;;;25.17;44.35;101979.78;5219090;28;20506;-49
2022/07/13 02:39:19;;;;;;;9.67;6.30;;;;;;;25.16;44.34;101978.13;5211512;28;20563;-47
2022/07/13 02:41:53;;;;;;;8.75;5.90;;;;;;;25.15;44.39;101975.63;5219452;28;20774;-47
2022/07/13 02:44:26;;;;;;;7.88;5.32;;;;;;;25.15;44.59;101975.63;5210175;28;20937;-43
2022/07/13 02:46:59;;;;;;;7.78;5.13;;;;;;;24.93;44.68;101951.66;5217909;28;20416;-47
2022/07/13 02:49:31;;;;;;;11.18;5.82;;;;;;;25.09;44.65;101974.63;5219351;28;20423;-47
2022/07/13 02:52:04;;;;;;;9.93;5.72;;;;;;;25.11;44.81;101975.22;5224580;28;20565;-46
2022/07/13 02:54:37;;;;;;;9.38;6.15;;;;;;;25.07;44.84;101974.00;5215926;28;20427;-47
2022/07/13 02:57:11;;;;;;;8.52;6.00;;;;;;;25.07;44.79;101969.41;5217181;28;20422;-48
2022/07/13 02:59:44;;;;;;;8.40;5.95;;;;;;;25.08;44.96;101970.25;5219675;28;20944;-48
2022/07/13 03:02:18;;;;;;;9.23;5.88;;;;;;;25.11;44.86;101980.63;5221856;28;20957;-48
2022/07/13 03:04:51;;;;;;;10.52;6.20;;;;;;;25.11;44.98;101975.22;5227463;28;20891;-47
2022/07/13 03:07:24;;;;;;;7.30;5.40;;;;;;;25.02;45.21;101952.19;5221857;28;20420;-51
2022/07/13 03:09:57;;;;;;;7.63;5.60;;;;;;;25.10;45.10;101960.03;5211794;28;20427;-49
2022/07/13 03:12:31;;;;;;;8.52;5.85;;;;;;;25.11;45.08;101959.00;5216185;28;20455;-46
2022/07/13 03:15:04;;;;;;;10.52;6.18;;;;;;;25.10;45.14;101959.22;5216225;28;20929;-49
2022/07/13 03:17:37;;;;;;;11.18;6.82;;;;;;;25.05;45.21;101949.91;5221696;28;20420;-50
2022/07/13 03:20:11;;;;;;;13.80;5.93;;;;;;;25.07;45.41;101953.19;5219559;28;20423;-48
2022/07/13 03:22:45;;;;;;;9.93;6.82;;;;;;;25.03;45.47;101948.47;5222853;28;20507;-49
2022/07/13 03:25:23;;;;;;;12.48;6.60;;;;;;;25.00;45.47;101963.25;5220616;28;20409;-47
2022/07/13 03:27:57;;;;;;;10.88;6.68;;;;;;;24.94;45.56;101952.47;5214512;28;20409;-45
2022/07/13 03:30:30;;;;;;;11.70;6.72;;;;;;;24.93;45.84;101956.19;5214741;27;20911;-49
2022/07/13 03:33:03;;;;;;;15.07;7.07;;;;;;;24.94;45.98;101952.47;5214039;28;20497;-48
2022/07/13 03:35:35;;;;;;;10.13;7.63;;;;;;;24.94;45.89;101955.19;5219340;28;20870;-51
2022/07/13 03:38:08;;;;;;;13.50;7.55;;;;;;;24.91;46.14;101947.50;5214406;28;20420;-46
2022/07/13 03:40:41;;;;;;;12.68;7.75;;;;;;;24.88;46.20;101945.25;5217732;28;20431;-49
2022/07/13 03:43:15;;;;;;;9.45;6.97;;;;;;;24.90;46.25;101953.94;5214162;28;20823;-47
2022/07/13 03:45:48;;;;;;;11.88;7.63;;;;;;;24.91;46.25;101974.53;5211966;28;20909;-51
2022/07/13 03:48:21;;;;;;;10.57;7.07;;;;;;;24.93;46.26;101954.34;5216996;28;20422;-48
2022/07/13 03:50:54;;;;;;;9.90;7.85;;;;;;;24.81;46.36;101932.59;5212026;28;20902;-51
2022/07/13 03:53:26;;;;;;;11.60;7.53;;;;;;;24.91;46.50;101945.63;5211205;28;20785;-47
2022/07/13 03:55:59;;;;;;;10.82;7.50;;;;;;;24.91;46.57;101947.50;5217031;28;20416;-46
2022/07/13 03:58:34;;;;;;;13.90;7.53;;;;;;;24.89;46.60;101939.59;5210916;28;20479;-46
2022/07/13 04:01:07;;;;;;;12.73;8.07;;;;;;;24.91;46.78;101944.81;5217124;28;20423;-50
2022/07/13 04:03:39;;;;;;;12.63;7.60;;;;;;;24.87;46.95;101943.56;5211386;28;20522;-47
2022/07/13 04:06:12;;;;;;;11.40;7.75;;;;;;;24.86;46.95;101940.03;5212769;28;21002;-47
2022/07/13 04:08:46;;;;;;;13.73;7.20;;;;;;;24.75;47.13;101922.66;5215518;28;20398;-48
2022/07/13 04:11:18;;;;;;;12.00;7.60;;;;;;;24.83;47.17;101935.91;5219322;28;20433;-49
2022/07/13 04:13:52;;;;;;;11.55;6.97;;;;;;;24.82;47.18;101934.25;5196566;28;20802;-49
2022/07/13 04:16:25;;;;;;;8.75;6.10;;;;;;;24.85;47.07;101933.81;5209192;27;20521;-45
2022/07/13 04:18:58;;;;;;;10.65;6.65;;;;;;;24.84;47.29;101926.75;5215022;28;20428;-50
2022/07/13 04:21:31;;;;;;;9.67;5.60;;;;;;;24.88;47.09;101935.25;5217333;28;20768;-51
2022/07/13 04:24:04;;;;;;;9.40;6.18;;;;;;;24.80;47.16;101924.69;5217936;28;20439;-47
2022/07/13 04:26:36;;;;;;;7.93;6.20;;;;;;;24.91;47.12;101924.00;5215929;28;21076;-50
2022/07/13 04:29:10;;;;;;;8.27;6.38;;;;;;;24.56;47.08;101867.72;5218391;28;20440;-46
2022/07/13 04:31:43;;;;;;;9.10;5.77;;;;;;;24.96;47.07;101923.34;5213269;28;20830;-46
2022/07/13 04:34:16;;;;;;;9.63;5.80;;;;;;;24.99;46.91;101922.91;5211960;28;20458;-51
2022/07/13 04:36:49;;;;;;;16.20;6.40;;;;;;;25.01;46.83;101931.63;5211722;28;20421;-45
2022/07/13 04:39:22;;;;;;;8.90;5.90;;;;;;;25.01;46.94;101929.75;5205334;28;20409;-49
2022/07/13 04:41:55;;;;;;;10.43;5.82;;;;;;;25.03;46.92;101937.66;5207655;28;20498;-43
2022/07/13 04:44:29;;;;;;;9.70;5.43;;;;;;;24.98;46.82;101932.06;5209901;28;20413;-47
2022/07/13 04:47:05;;;;;;;9.98;5.13;;;;;;;25.02;46.82;101934.13;5211446;28;20445;-47
2022/07/13 04:49:37;;;;;;;8.73;4.90;;;;;;;25.04;46.88;101921.19;5208887;28;20491;-46
2022/07/13 04:52:10;;;;;;;10.43;4.95;;;;;;;25.05;46.72;101916.63;5224122;28;20813;-46
2022/07/13 04:54:43;;;;;;;8.38;5.50;;;;;;;25.04;46.80;101915.78;5219849;28;20404;-45
2022/07/13 04:57:16;;;;;;;9.95;5.03;;;;;;;25.02;46.73;101915.22;5225304;28;20416;-47
2022/07/13 04:59:50;;;;;;;9.38;4.57;;;;;;;25.02;46.88;101906.25;5220977;28;20891;-47
2022/07/13 05:02:22;;;;;;;11.30;5.18;;;;;;;25.02;46.88;101914.34;5225329;28;20927;-47
2022/07/13 05:04:55;;;;;;;8.60;3.78;;;;;;;24.99;46.82;101912.94;5221512;28;20839;-42
2022/07/13 05:07:28;;;;;;;8.48;3.72;;;;;;;25.07;46.84;101922.63;5225281;28;20410;-48
2022/07/13 05:10:01;;;;;;;8.18;3.58;;;;;;;25.08;46.83;101921.59;5226708;28;20838;-47
2022/07/13 05:12:39;;;;;;;8.18;3.97;;;;;;;25.09;46.75;101912.44;5227152;28;20418;-49
2022/07/13 05:15:14;;;;;;;7.00;3.70;;;;;;;25.09;46.80;101909.75;5220681;28;20708;-48
2022/07/13 05:17:46;;;;;;;6.97;3.40;;;;;;;25.06;46.68;101924.53;5221291;28;20997;-48
2022/07/13 05:20:19;;;;;;;8.63;3.17;;;;;;;25.08;46.75;101922.44;5227133;28;20477;-47
2022/07/13 05:22:52;;;;;;;3.37;2.73;;;;;;;25.06;46.84;101923.69;5225025;28;20494;-48
2022/07/13 05:25:25;;;;;;;4.85;2.92;;;;;;;25.13;46.79;101929.91;5207800;28;20973;-48
2022/07/13 05:28:00;;;;;;;9.18;2.92;;;;;;;25.16;46.88;101929.47;5201829;28;20437;-47
2022/07/13 05:30:34;;;;;;;5.40;2.63;;;;;;;25.15;46.91;101926.97;5208615;28;20435;-52
2022/07/13 05:33:07;;;;;;;6.85;2.80;;;;;;;25.18;46.85;101927.38;5222024;28;20405;-49
2022/07/13 05:35:40;;;;;;;4.80;2.65;;;;;;;25.24;46.96;101931.91;5211152;28;20424;-51
2022/07/13 05:38:13;;;;;;;10.45;3.15;;;;;;;24.60;46.88;101822.19;5219523;28;20834;-50
2022/07/13 05:40:46;;;;;;;7.13;3.53;;;;;;;25.36;47.11;101923.88;5221602;28;20408;-50
2022/07/13 05:43:19;;;;;;;9.73;3.17;;;;;;;25.39;47.05;101936.13;5226566;28;20431;-49
2022/07/13 05:45:53;;;;;;;6.70;2.65;;;;;;;25.42;47.25;101938.38;5212937;28;20920;-50
2022/07/13 05:48:26;;;;;;;5.90;2.97;;;;;;;25.46;47.16;101940.44;5216785;28;20509;-47
2022/07/13 05:50:59;;;;;;;10.90;3.73;;;;;;;25.52;47.04;101941.44;5219842;28;20450;-51
2022/07/13 05:53:32;;;;;;;5.53;3.35;;;;;;;25.57;47.30;101941.56;5216028;28;20409;-52
2022/07/13 05:56:05;;;;;;;5.13;3.00;;;;;;;25.61;47.14;101945.50;5211909;28;20419;-48
2022/07/13 05:58:38;;;;;;;6.53;3.63;;;;;;;25.66;47.26;101951.06;5219797;28;20489;-52
2022/07/13 06:01:12;;;;;;;7.75;4.25;;;;;;;25.70;47.38;101938.72;5219681;28;20828;-53
2022/07/13 06:03:45;;;;;;;6.68;3.50;;;;;;;25.74;47.44;101939.97;5213402;28;23410;-52
2022/07/13 06:06:17;;;;;;;4.97;3.70;;;;;;;25.91;47.29;101942.91;5223088;28;20419;-48
2022/07/13 06:08:50;;;;;;;8.80;3.38;;;;;;;26.10;47.46;101942.91;5219474;28;20436;-53
2022/07/13 06:11:23;;;;;;;6.15;3.45;;;;;;;26.24;47.12;101946.31;5214122;28;20432;-51
2022/07/13 06:13:55;;;;;;;7.53;3.50;;;;;;;26.31;47.20;101936.22;5220258;28;20419;-50
2022/07/13 06:16:30;;;;;;;6.10;3.70;;;;;;;26.93;46.62;101944.94;5218600;28;20897;-51
2022/07/13 06:19:03;;;;;;;6.30;3.50;;;;;;;28.00;44.81;101874.19;5217879;28;20437;-52
2022/07/13 06:21:36;;;;;;;8.80;3.58;;;;;;;30.15;42.94;101937.50;5225711;28;20418;-54
2022/07/13 06:24:08;;;;;;;7.75;3.30;;;;;;;31.76;41.45;101934.03;5221961;28;20435;-53
2022/07/13 06:26:41;;;;;;;5.93;2.80;;;;;;;33.09;39.74;101924.25;5226601;28;20485;-52
2022/07/13 06:29:14;;;;;;;6.88;3.55;;;;;;;34.29;38.74;101936.22;5224066;28;20426;-53
2022/07/13 06:31:48;;;;;;;7.35;3.38;;;;;;;35.29;37.31;101932.16;5226584;28;20416;-54
2022/07/13 06:34:21;;;;;;;7.20;3.67;;;;;;;36.21;36.60;101930.28;5219712;28;20415;-54
2022/07/13 06:36:54;;;;;;;8.67;3.60;;;;;;;36.93;35.71;101930.00;5226850;28;20403;-55
2022/07/13 06:39:27;;;;;;;7.85;3.72;;;;;;;37.61;35.21;101937.59;5219784;28;20426;-56
2022/07/13 06:41:59;;;;;;;8.45;3.40;;;;;;;38.18;34.33;101930.88;5219267;28;20775;-53
2022/07/13 06:44:32;;;;;;;10.00;3.40;;;;;;;38.62;33.86;101924.63;5215834;28;20461;-50
2022/07/13 06:47:06;;;;;;;7.65;3.28;;;;;;;39.08;33.44;101936.44;5224075;28;20743;-58
2022/07/13 06:49:39;;;;;;;7.75;2.70;;;;;;;39.43;32.92;101934.69;5226297;28;20419;-52
2022/07/13 06:52:11;;;;;;;8.30;2.70;;;;;;;39.82;32.54;101938.56;5220640;28;20450;-56
2022/07/13 06:54:44;;;;;;;6.13;2.70;;;;;;;40.20;32.16;101919.44;5223840;28;20911;-58
2022/07/13 06:57:17;;;;;;;8.07;2.90;;;;;;;40.66;31.61;101920.69;5216580;28;20404;-56
2022/07/13 06:59:49;;;;;;;5.88;2.75;;;;;;;40.91;31.10;101918.19;5218837;28;20570;-56
2022/07/13 07:02:24;;;;;;;5.63;2.42;;;;;;;41.17;30.85;101927.28;5222107;28;20453;-56
2022/07/13 07:04:56;;;;;;;7.32;2.60;;;;;;;41.39;30.52;101919.84;5216248;28;20903;-56
2022/07/13 07:07:29;;;;;;;6.65;2.75;;;;;;;41.62;30.09;101921.19;5223932;28;20511;-56
2022/07/13 07:10:02;;;;;;;8.15;2.65;;;;;;;41.58;29.82;101903.59;5216693;28;20401;-53
2022/07/13 07:12:35;;;;;;;5.65;2.47;;;;;;;41.89;29.61;101930.19;5219888;28;20412;-58
2022/07/13 07:15:09;;;;;;;4.18;2.50;;;;;;;42.05;29.50;101928.44;5220266;28;20455;-56
2022/07/13 07:17:47;;;;;;;5.72;2.88;;;;;;;42.18;29.23;101936.81;5223361;28;20451;-56
2022/07/13 07:20:20;;;;;;;6.22;2.38;;;;;;;42.25;29.49;101937.91;5216353;28;20505;-57
2022/07/13 07:22:53;;;;;;;5.75;2.60;;;;;;;42.30;29.02;101934.94;5214833;28;20418;-58
2022/07/13 07:25:25;;;;;;;5.47;2.45;;;;;;;42.40;28.56;101944.81;5210783;28;20786;-56
2022/07/13 07:27:58;;;;;;;7.97;2.70;;;;;;;42.54;28.62;101939.78;5210820;28;20496;-57
2022/07/13 07:30:31;;;;;;;9.13;2.38;;;;;;;42.49;28.63;101937.22;5209520;28;20451;-58
2022/07/13 07:33:05;;;;;;;7.75;2.80;;;;;;;42.50;28.55;101922.19;5207600;28;20413;-58
2022/07/13 07:35:39;;;;;;;5.60;2.72;;;;;;;42.65;28.54;101931.00;5204431;28;20871;-57
2022/07/13 07:38:11;;;;;;;10.30;3.20;;;;;;;42.60;28.57;101916.19;5210822;28;20423;-56
2022/07/13 07:40:44;;;;;;;11.68;2.85;;;;;;;42.59;28.57;101931.25;5201019;28;20504;-57
2022/07/13 07:43:16;;;;;;;9.50;3.03;;;;;;;42.64;28.22;101921.06;5206715;28;20896;-58
2022/07/13 07:45:49;;;;;;;5.68;2.60;;;;;;;42.45;28.13;101929.91;5207172;28;20416;-58
2022/07/13 07:48:23;;;;;;;9.10;3.23;;;;;;;42.29;28.38;101927.78;5207148;28;20426;-58
2022/07/13 07:50:56;;;;;;;8.23;2.97;;;;;;;42.24;28.36;101927.13;5212389;28;20457;-53
2022/07/13 07:53:28;;;;;;;7.18;2.80;;;;;;;42.28;28.13;101926.13;5208537;27;20422;-60
2022/07/13 07:56:01;;;;;;;7.22;3.22;;;;;;;42.28;28.42;101928.09;5207442;27;20418;-53
2022/07/13 07:58:34;;;;;;;7.85;3.00;;;;;;;42.22;28.17;101904.47;5206660;28;20512;-56
2022/07/13 08:01:07;;;;;;;12.00;3.17;;;;;;;42.36;28.16;101916.09;5208251;28;20454;-54
2022/07/13 08:03:41;;;;;;;9.65;3.17;;;;;;;42.34;28.19;101912.88;5207045;28;20793;-56
2022/07/13 08:06:15;;;;;;;7.85;3.20;;;;;;;42.23;28.36;101917.19;5206318;28;21774;-55
2022/07/13 08:08:48;;;;;;;6.32;3.03;;;;;;;42.13;28.06;101916.44;5201172;28;20471;-56
2022/07/13 08:11:21;;;;;;;10.37;3.00;;;;;;;42.08;28.08;101916.66;5208215;28;20434;-56
2022/07/13 08:13:54;;;;;;;9.15;3.05;;;;;;;42.01;27.97;101921.94;5215102;28;20415;-55
2022/07/13 08:16:26;;;;;;;7.63;3.20;;;;;;;41.89;28.17;101919.09;5205386;28;20415;-55
2022/07/13 08:19:00;;;;;;;6.70;2.70;;;;;;;41.83;28.27;101920.41;5211895;28;20413;-54
2022/07/13 08:21:34;;;;;;;6.63;2.70;;;;;;;41.72;28.25;101913.63;5217740;28;20494;-54
2022/07/13 08:24:07;;;;;;;6.22;2.70;;;;;;;41.70;28.34;101922.28;5207166;28;20908;-55
2022/07/13 08:26:40;;;;;;;11.15;3.08;;;;;;;41.57;28.54;101921.41;5204736;28;20942;-55
2022/07/13 08:29:13;;;;;;;9.57;2.50;;;;;;;41.41;28.61;101920.28;5206579;28;20428;-56
2022/07/13 08:31:46;;;;;;;9.02;3.30;;;;;;;41.27;28.57;101922.50;5208819;28;20440;-56
2022/07/13 08:40:00;;;;;;;11.38;2.60;;;;;;;40.82;28.47;101920.19;5202676;28;20829;-56
2022/07/13 08:42:33;;;;;;;7.07;2.53;;;;;;;40.68;28.57;101921.19;5206291;28;20810;-55
2022/07/13 08:45:08;;;;;;;7.70;2.50;;;;;;;40.55;28.45;101922.97;5206831;28;20890;-56
2022/07/13 08:47:43;;;;;;;5.50;2.38;;;;;;;40.40;28.58;101919.91;5210264;28;20909;-57
2022/07/13 08:50:19;;;;;;;6.85;2.17;;;;;;;40.19;28.62;101920.56;5206904;28;20417;-57
2022/07/13 08:52:52;;;;;;;5.28;2.17;;;;;;;40.20;28.59;101915.84;5211973;28;20413;-54
2022/07/13 08:55:25;;;;;;;9.30;2.53;;;;;;;40.05;28.38;101917.13;5210149;28;20763;-55
2022/07/13 08:57:58;;;;;;;7.50;2.70;;;;;;;40.03;28.40;101922.16;5202213;28;20439;-54
2022/07/13 09:00:30;;;;;;;5.50;2.55;;;;;;;39.99;28.51;101929.47;5204962;28;20422;-54
2022/07/13 09:03:03;;;;;;;6.97;2.10;;;;;;;39.76;28.42;101937.88;5213716;28;20884;-54
2022/07/13 09:05:38;;;;;;;6.40;2.10;;;;;;;39.66;28.44;101940.94;5209890;28;20980;-56
2022/07/13 09:08:13;;;;;;;5.90;2.47;;;;;;;39.51;28.77;101927.53;5210199;28;20423;-51
2022/07/13 09:10:57;;;;;;;3.70;1.83;;;;;;;39.19;28.32;101922.03;5206390;28;20442;-53
2022/07/13 09:13:39;;;;;;;7.18;2.38;;;;;;;39.19;28.61;101951.63;5203876;28;20426;-54
2022/07/13 09:16:20;;;;;;;7.03;2.63;;;;;;;38.79;28.67;101917.56;5207955;28;20956;-54
2022/07/13 09:18:55;;;;;;;9.43;2.63;;;;;;;38.80;28.81;101964.19;5207431;28;20469;-54
2022/07/13 09:21:30;;;;;;;7.18;2.40;;;;;;;38.58;28.74;101950.41;5202022;28;20421;-55
2022/07/13 09:24:04;;;;;;;5.72;2.50;;;;;;;38.45;28.84;101955.66;5208911;28;20434;-54
2022/07/13 09:26:45;;;;;;;4.43;2.30;;;;;;;38.36;28.99;101948.41;5206891;28;20444;-55
2022/07/13 09:29:21;;;;;;;6.30;2.60;;;;;;;38.24;28.83;101957.22;5206247;28;20460;-54
2022/07/13 09:31:56;;;;;;;7.07;2.65;;;;;;;38.14;28.88;101951.94;5212245;28;20634;-54
2022/07/13 09:34:50;;;;;;;5.15;2.25;;;;;;;38.00;29.03;101944.53;5205747;28;20577;-52
2022/07/13 09:37:27;;;;;;;6.18;2.92;;;;;;;37.90;28.94;101952.16;5211043;28;20502;-53
2022/07/13 09:40:08;;;;;;;14.23;4.35;;;;;;;37.81;28.96;101960.31;5206939;28;20859;-53
2022/07/13 09:42:43;;;;;;;10.98;4.18;;;;;;;37.75;29.18;101958.81;5209425;28;21685;-54
2022/07/13 09:48:14;;;;;;;13.45;5.55;;;;;;;37.36;29.50;101955.41;5208641;28;20521;-54
2022/07/13 09:50:55;;;;;;;19.48;5.53;;;;;;;37.25;29.31;101959.47;5210689;28;20640;-49
2022/07/13 09:53:31;;;;;;;15.52;5.00;;;;;;;37.01;29.55;101962.38;5210294;28;20938;-54
2022/07/13 09:56:06;;;;;;;13.02;4.55;;;;;;;36.96;29.57;101973.44;5211720;28;20428;-55
2022/07/13 09:58:40;;;;;;;12.25;4.10;;;;;;;37.00;29.68;101977.25;5210056;28;20554;-51
2022/07/13 10:01:12;;;;;;;10.60;4.20;;;;;;;37.08;29.46;101976.56;5210392;28;21306;-56
2022/07/13 10:03:47;;;;;;;12.52;4.18;;;;;;;37.06;29.29;101975.25;5211420;28;20427;-51
2022/07/13 10:06:20;;;;;;;10.15;3.78;;;;;;;37.06;29.27;101972.47;5211572;28;20998;-52
2022/07/13 10:08:55;;;;;;;10.30;3.92;;;;;;;37.06;29.00;101978.00;5208681;28;20494;-51
2022/07/13 10:11:28;;;;;;;13.13;3.58;;;;;;;37.06;29.00;101978.81;5209347;28;20420;-54
2022/07/13 10:14:00;;;;;;;9.37;3.73;;;;;;;37.04;29.18;101983.81;5216947;28;20507;-50
2022/07/13 10:16:33;;;;;;;12.57;3.60;;;;;;;36.98;28.87;101987.75;5213895;28;20419;-54
2022/07/13 10:19:09;;;;;;;6.15;3.22;;;;;;;36.90;28.89;101977.41;5203230;28;20926;-53
2022/07/13 10:22:02;;;;;;;8.00;3.30;;;;;;;36.99;28.74;102005.91;5205931;28;20501;-51
2022/07/13 10:24:37;;;;;;;11.27;3.38;;;;;;;36.97;28.93;102001.81;5211174;28;20876;-52
2022/07/13 10:27:25;;;;;;;13.38;3.85;;;;;;;36.86;28.54;101987.41;5209316;28;20526;-53
2022/07/13 10:30:00;;;;;;;11.48;3.30;;;;;;;36.90;28.94;102007.69;5215493;28;20423;-51
2022/07/13 10:32:34;;;;;;;5.85;2.67;;;;;;;36.75;29.14;102005.19;5221604;28;20498;-50
2022/07/13 10:35:09;;;;;;;9.20;2.67;;;;;;;36.75;29.11;102027.22;5208003;28;20419;-53
2022/07/13 10:38:17;;;;;;;3.30;2.22;;;;;;;36.69;29.00;102030.03;5206010;28;21034;-53
2022/07/13 10:41:11;;;;;;;4.60;1.90;;;;;;;36.54;29.12;102027.50;5211013;28;20516;-49
2022/07/13 10:43:52;;;;;;;4.82;1.95;;;;;;;36.52;28.76;102024.25;5218433;28;20416;-54
2022/07/13 10:46:48;;;;;;;2.80;1.73;;;;;;;36.58;28.62;102028.56;5222023;28;20486;-52
2022/07/13 10:49:41;;;;;;;4.03;1.40;;;;;;;36.59;28.41;102032.94;5222639;28;20408;-51
2022/07/13 10:52:50;;;;;;;3.78;1.50;;;;;;;36.56;28.39;102030.78;5219737;27;20429;-49
2022/07/13 10:55:34;;;;;;;4.22;1.92;;;;;;;36.41;28.13;102029.03;5221573;28;20419;-53
2022/07/13 10:58:45;;;;;;;4.90;2.20;;;;;;;36.44;28.37;102027.63;5218574;28;20499;-53
2022/07/13 11:01:44;;;;;;;4.07;1.63;;;;;;;36.44;28.03;102035.88;5214824;28;20423;-54
2022/07/13 11:04:19;;;;;;;4.07;1.70;;;;;;;36.46;27.83;102041.91;5221351;28;20414;-52
2022/07/13 11:07:09;;;;;;;3.97;1.50;;;;;;;36.42;27.91;102046.34;5223479;28;20487;-53
2022/07/13 11:09:42;;;;;;;2.33;1.33;;;;;;;36.39;27.49;102047.78;5216204;28;20430;-52
2022/07/13 11:12:22;;;;;;;3.20;1.40;;;;;;;36.32;27.78;102052.81;5224125;28;20499;-53
2022/07/13 11:14:56;;;;;;;4.85;1.58;;;;;;;36.24;27.66;102046.03;5222591;28;20479;-50
2022/07/13 11:17:30;;;;;;;2.00;1.45;;;;;;;36.18;27.68;102041.72;5218035;28;20402;-55
2022/07/13 11:20:07;;;;;;;5.82;1.67;;;;;;;36.13;27.52;102039.00;5223921;28;20438;-48
2022/07/13 11:25:55;;;;;;;2.90;1.10;;;;;;;35.97;27.76;102041.09;5185610;28;20411;-54
2022/07/13 11:28:35;;;;;;;4.53;1.65;;;;;;;36.03;27.18;102055.66;5221184;28;20422;-51
2022/07/13 11:31:12;;;;;;;2.90;1.33;;;;;;;36.07;26.93;102051.19;5225020;28;20423;-54
2022/07/13 11:33:51;;;;;;;3.80;1.30;;;;;;;36.03;27.10;102043.84;5223797;28;20508;-51
2022/07/13 11:36:25;;;;;;;6.78;1.30;;;;;;;36.05;27.24;102047.09;5224828;28;20501;-49
2022/07/13 11:38:59;;;;;;;3.65;1.30;;;;;;;36.12;26.60;102044.81;5220716;28;20876;-54
2022/07/13 11:41:32;;;;;;;7.60;1.30;;;;;;;36.20;26.68;102044.97;5222683;28;20428;-51
2022/07/13 11:44:05;;;;;;;2.93;1.20;;;;;;;36.21;26.69;102045.81;5228702;28;20419;-54
2022/07/13 11:46:39;;;;;;;6.68;1.50;;;;;;;36.24;26.84;102045.22;5222392;28;20415;-54
2022/07/13 11:49:12;;;;;;;2.60;1.20;;;;;;;36.14;26.81;102045.31;5223381;28;21018;-51
2022/07/13 11:51:45;;;;;;;2.67;1.83;;;;;;;35.99;27.07;102049.88;5222182;28;20429;-53
2022/07/13 11:54:21;;;;;;;2.97;1.50;;;;;;;35.82;27.26;102035.78;5218370;28;20423;-53
2022/07/13 11:56:56;;;;;;;5.50;1.93;;;;;;;35.91;27.28;102057.94;5222234;28;20772;-51
2022/07/13 11:59:40;;;;;;;2.22;1.33;;;;;;;35.96;27.36;102066.16;5190222;28;20942;-51
2022/07/13 12:02:16;;;;;;;2.33;1.40;;;;;;;35.96;27.51;102066.97;5223486;28;20427;-52
2022/07/13 12:04:51;;;;;;;3.80;1.52;;;;;;;35.94;27.65;102057.38;5223065;28;20411;-52
2022/07/13 12:07:25;;;;;;;2.20;1.40;;;;;;;36.10;27.23;102066.28;5221108;28;20633;-53
2022/07/13 12:10:00;;;;;;;2.90;1.50;;;;;;;36.15;27.24;102072.56;5220034;28;20431;-53